DTTZ

Details ICAO DTTZ (TOE)
Name NEFTA
Region Tunisia
Timezone Africa/Tunis (UTC+1.0)
Plans Departing 8
Arriving 21
Stats Elevation 287 ft / 87 m (AMSL)
Location 33.939610° 8.101109°
Runways 1
Magnetic Variation 1.891° E
Sunrise 2017-12-18 06:28:41 UTC / 2017-12-18 07:28:41 Local
Sunset 2017-12-18 16:22:25 UTC / 2017-12-18 17:22:25 Local
Advertisement - Login to hide

Runways

ID Width Length Bearing (true) Bearing (mag) Surface Threshold Offset Overrun Length
09 148 ft / 45 m 10,551 ft / 3,216 m 90.07° 88.18° Asphalt 0 ft / 0 m 197 ft / 60 m
27 148 ft / 45 m 10,551 ft / 3,216 m 270.09° 268.20° Asphalt 0 ft / 0 m 197 ft / 60 m

Approach Navaids

Runway Type Ident Frequency Range Bearing (true) Bearing (mag) Slope Elevation
09 Localiser TOZ 110.50 MHz 18 nm / 33 km 89.64° 87.75° - 287 ft / 87 m (AMSL)
09 Glidescope TOZ 110.50 MHz 10 nm / 19 km 90.08° 88.19° 3.00° 287 ft / 87 m (AMSL)

Map

Weather


0- 5 10 15 20 25 30 35+ Temperature / ° C

Clouds and Precipitation
Forecast for 2017-12-18 12:00 UTC. Updated 2 hours ago

Ground ~20,000 ft ~40,000 ft Winds

METAR

DTTZ 181200Z 33006KT 290V010 9999 FEW030 14/00 Q1026 NOSIG

TAF

TAF DTTZ 181109Z 1812/1912 36008KT 9999 FEW030

Frequencies

Tower 118.20 MHz TOZEUR TWR
Approach 120.70 MHz TOZEUR APP
Warning: Do not use this data for real-world aviation or navigation. No guarantee of current accuracy is given.